createdAt,value
2022-08-07T07:07:18.853Z,28.13
2022-08-07T07:08:10.064Z,28.13
2022-08-07T07:09:06.885Z,28.13
2022-08-07T07:10:06.858Z,28.13
2022-08-07T07:11:13.183Z,28.13
2022-08-07T07:12:19.648Z,28.13
2022-08-07T07:13:06.854Z,28.13
2022-08-07T07:14:08.310Z,28.13
2022-08-07T07:15:08.597Z,28.13
2022-08-07T07:16:06.735Z,28.13
2022-08-07T07:17:06.711Z,28.13
2022-08-07T07:18:06.692Z,28.13
2022-08-07T07:19:54.831Z,28.13
2022-08-07T07:20:06.670Z,28.13
2022-08-07T07:21:13.630Z,28.13
2022-08-07T07:22:32.278Z,28.13
2022-08-07T07:24:08.227Z,28.13
2022-08-07T07:24:11.735Z,28.13
2022-08-07T07:26:31.583Z,33.75
2022-08-07T07:26:34.907Z,39.38
2022-08-07T07:27:06.729Z,33.75
2022-08-07T07:28:07.569Z,33.75
2022-08-07T07:29:56.107Z,33.75
2022-08-07T07:30:09.119Z,39.38
2022-08-07T07:31:07.070Z,45.00
2022-08-07T07:32:06.459Z,39.38
2022-08-07T07:33:06.416Z,33.75
2022-08-07T07:34:06.426Z,33.75
2022-08-07T07:35:06.394Z,33.75
2022-08-07T07:36:13.308Z,33.75
2022-08-07T07:37:21.558Z,33.75
2022-08-07T07:38:06.707Z,33.75
2022-08-07T07:39:06.389Z,33.75
2022-08-07T07:40:06.333Z,33.75
2022-08-07T07:41:08.943Z,33.75
2022-08-07T07:42:13.760Z,33.75
2022-08-07T07:43:15.316Z,33.75
2022-08-07T07:44:17.458Z,33.75
2022-08-07T07:45:06.219Z,33.75
2022-08-07T07:46:53.684Z,33.75
2022-08-07T07:47:15.705Z,33.75
2022-08-07T07:48:06.181Z,33.75
2022-08-07T07:49:09.127Z,33.75
2022-08-07T07:50:33.455Z,33.75
2022-08-07T07:51:07.791Z,33.75
2022-08-07T07:52:06.113Z,33.75
2022-08-07T07:53:06.089Z,33.75
2022-08-07T07:54:06.092Z,33.75
2022-08-07T07:55:06.088Z,33.75
2022-08-07T07:56:06.059Z,33.75
2022-08-07T07:57:06.042Z,33.75
2022-08-07T07:58:06.005Z,33.75
2022-08-07T07:59:06.216Z,39.38
2022-08-07T08:00:05.974Z,39.38
2022-08-07T08:02:01.930Z,45.00
2022-08-07T08:02:10.296Z,56.25
2022-08-07T08:03:07.908Z,61.88
2022-08-07T08:04:11.523Z,45.00
2022-08-07T08:05:11.506Z,39.38
2022-08-07T08:06:05.901Z,39.38
2022-08-07T08:07:07.694Z,39.38
2022-08-07T08:08:05.860Z,39.38
2022-08-07T08:09:05.827Z,39.38
2022-08-07T08:10:05.932Z,39.38
2022-08-07T08:11:05.812Z,45.00
2022-08-07T08:12:06.056Z,45.00
2022-08-07T08:13:05.763Z,39.38
2022-08-07T08:14:05.748Z,39.38
2022-08-07T08:15:07.004Z,39.38
2022-08-07T08:16:05.736Z,39.38
2022-08-07T08:17:55.576Z,39.38
2022-08-07T08:18:17.334Z,45.00
2022-08-07T08:19:17.476Z,45.00
2022-08-07T08:20:17.366Z,45.00
2022-08-07T08:21:05.643Z,39.38
2022-08-07T08:22:05.619Z,39.38
2022-08-07T08:23:06.452Z,39.38
2022-08-07T08:24:05.617Z,39.38
2022-08-07T08:25:24.973Z,39.38
2022-08-07T08:26:07.128Z,39.38
2022-08-07T08:27:09.278Z,39.38
2022-08-07T08:28:05.536Z,39.38
2022-08-07T08:29:05.503Z,39.38
2022-08-07T08:30:05.500Z,39.38
2022-08-07T08:31:05.476Z,45.00
2022-08-07T08:32:17.939Z,45.00
2022-08-07T08:33:05.467Z,45.00
2022-08-07T08:34:05.427Z,45.00
2022-08-07T08:35:05.413Z,45.00
2022-08-07T08:36:05.417Z,45.00
2022-08-07T08:37:09.861Z,45.00
2022-08-07T08:38:05.445Z,45.00
2022-08-07T08:39:05.416Z,45.00
2022-08-07T08:40:05.461Z,45.00
2022-08-07T08:41:05.389Z,45.00
2022-08-07T08:42:05.309Z,45.00
2022-08-07T08:43:05.306Z,45.00
2022-08-07T08:44:05.288Z,45.00
2022-08-07T08:45:05.254Z,45.00
2022-08-07T08:46:05.242Z,45.00
2022-08-07T08:47:05.235Z,50.63
2022-08-07T08:48:05.214Z,50.63
2022-08-07T08:49:05.251Z,50.63
2022-08-07T08:50:05.976Z,50.63
2022-08-07T08:51:14.637Z,50.63
2022-08-07T08:52:14.067Z,50.63
2022-08-07T08:53:05.134Z,50.63
2022-08-07T08:54:05.124Z,50.63
2022-08-07T08:55:07.819Z,50.63
2022-08-07T08:56:05.091Z,50.63
2022-08-07T08:57:05.069Z,50.63
2022-08-07T08:58:05.058Z,50.63
2022-08-07T08:59:08.671Z,50.63
2022-08-07T09:00:05.025Z,50.63
2022-08-07T09:01:15.296Z,56.25
2022-08-07T09:02:05.089Z,56.25
2022-08-07T09:03:07.531Z,56.25
2022-08-07T09:04:05.010Z,56.25
2022-08-07T09:05:04.952Z,56.25
2022-08-07T09:06:04.929Z,61.88
2022-08-07T09:07:04.920Z,61.88
2022-08-07T09:08:04.907Z,61.88
2022-08-07T09:09:13.568Z,61.88
2022-08-07T09:10:04.893Z,67.50
2022-08-07T09:11:04.861Z,67.50
2022-08-07T09:12:30.509Z,67.50
2022-08-07T09:13:04.831Z,67.50
2022-08-07T09:14:04.814Z,73.13
2022-08-07T09:16:23.931Z,73.13
2022-08-07T09:16:24.390Z,73.13
2022-08-07T09:17:05.354Z,78.75
2022-08-07T09:18:09.913Z,78.75
2022-08-07T09:19:07.257Z,84.38
2022-08-07T09:20:35.042Z,416.25
2022-08-07T09:21:04.921Z,984.38
2022-08-07T09:22:22.656Z,1541.25
2022-08-07T09:24:32.504Z,2115.00
2022-08-07T09:24:53.917Z,1653.75
2022-08-07T09:25:11.922Z,1462.50
2022-08-07T09:26:04.641Z,146.25
2022-08-07T09:27:11.851Z,236.25
2022-08-07T09:28:04.614Z,180.00
2022-08-07T09:30:01.981Z,185.63
2022-08-07T09:30:08.373Z,163.13
2022-08-07T09:31:04.570Z,146.25
2022-08-07T09:32:04.554Z,140.63
2022-08-07T09:33:05.716Z,157.50
2022-08-07T09:34:04.541Z,174.38
2022-08-07T09:36:04.048Z,191.25
2022-08-07T09:36:07.720Z,219.38
2022-08-07T09:37:04.490Z,225.00
2022-08-07T09:38:04.497Z,230.63
2022-08-07T09:39:11.489Z,247.50
2022-08-07T09:40:04.497Z,253.13
2022-08-07T09:41:04.424Z,258.75
2022-08-07T09:42:07.596Z,275.63
2022-08-07T09:43:04.404Z,281.25
2022-08-07T09:44:06.634Z,326.25
2022-08-07T09:47:27.389Z,523.13
2022-08-07T09:47:49.909Z,810.00
2022-08-07T09:47:52.194Z,1434.38
2022-08-07T09:48:11.748Z,1293.75
2022-08-07T09:50:02.859Z,1136.25
2022-08-07T09:50:19.032Z,877.50
2022-08-07T09:51:04.446Z,506.25
2022-08-07T09:52:15.459Z,438.75
2022-08-07T09:53:04.283Z,399.38
2022-08-07T09:54:04.286Z,382.50
2022-08-07T09:55:04.274Z,376.88
2022-08-07T09:56:05.242Z,337.50
2022-08-07T09:57:04.229Z,343.13
2022-08-07T09:58:04.230Z,348.75
2022-08-07T09:59:07.549Z,348.75
2022-08-07T10:00:04.264Z,376.88
2022-08-07T10:01:08.482Z,360.00
2022-08-07T10:02:04.195Z,360.00
2022-08-07T10:03:07.884Z,354.38
2022-08-07T10:04:14.172Z,354.38
2022-08-07T10:05:12.586Z,365.63
2022-08-07T10:06:12.079Z,393.75
2022-08-07T10:07:04.153Z,427.50
2022-08-07T10:08:04.207Z,444.38
2022-08-07T10:09:04.117Z,495.00
2022-08-07T10:10:04.130Z,568.13
2022-08-07T10:11:58.905Z,568.13
2022-08-07T10:12:11.797Z,601.88
2022-08-07T10:13:04.097Z,635.63
2022-08-07T10:14:04.081Z,731.25
2022-08-07T10:15:04.073Z,1051.88
2022-08-07T10:16:04.090Z,1164.38
2022-08-07T10:17:04.053Z,1080.00
2022-08-07T10:18:04.051Z,866.25
2022-08-07T10:19:04.042Z,736.88
2022-08-07T10:20:04.035Z,826.88
2022-08-07T10:21:04.031Z,849.38
2022-08-07T10:22:15.071Z,866.25
2022-08-07T10:23:04.022Z,855.00
2022-08-07T10:24:05.881Z,832.50
2022-08-07T10:25:03.996Z,849.38
2022-08-07T10:26:03.998Z,832.50
2022-08-07T10:27:06.636Z,793.13
2022-08-07T10:28:03.985Z,815.63
2022-08-07T10:29:03.974Z,787.50
2022-08-07T10:30:03.955Z,787.50
2022-08-07T10:31:06.056Z,815.63
2022-08-07T10:32:03.947Z,843.75
2022-08-07T10:33:03.933Z,871.88
2022-08-07T10:34:07.028Z,888.75
2022-08-07T10:35:03.917Z,900.00
2022-08-07T10:36:11.043Z,900.00
2022-08-07T10:37:04.768Z,888.75
2022-08-07T10:38:34.945Z,866.25
2022-08-07T10:39:05.482Z,804.38
2022-08-07T10:40:06.105Z,765.00
2022-08-07T10:41:04.116Z,691.88
2022-08-07T10:42:09.788Z,663.75
2022-08-07T10:43:03.870Z,646.88
2022-08-07T10:44:07.766Z,680.63
2022-08-07T10:45:03.863Z,736.88
2022-08-07T10:46:03.857Z,826.88
2022-08-07T10:47:03.836Z,871.88
2022-08-07T10:48:04.255Z,883.13
2022-08-07T10:49:03.811Z,877.50
2022-08-07T10:50:03.828Z,916.88
2022-08-07T10:51:03.992Z,911.25
2022-08-07T10:52:13.741Z,905.63
2022-08-07T10:53:08.034Z,877.50
2022-08-07T10:54:03.776Z,877.50
2022-08-07T10:55:20.840Z,894.38
2022-08-07T10:56:03.786Z,883.13
2022-08-07T10:57:04.560Z,950.63
2022-08-07T10:58:03.748Z,1006.88
2022-08-07T10:59:03.733Z,1186.88
2022-08-07T11:00:03.735Z,1192.50
2022-08-07T11:01:11.364Z,1243.13
2022-08-07T11:02:04.814Z,1260.00
2022-08-07T11:03:03.747Z,1248.75
2022-08-07T11:04:16.520Z,1203.75
2022-08-07T11:05:10.210Z,1181.25
2022-08-07T11:06:04.771Z,1243.13
2022-08-07T11:07:03.678Z,1316.25
2022-08-07T11:08:03.788Z,1434.38
2022-08-07T11:09:03.675Z,1507.50
2022-08-07T11:10:07.964Z,1524.38
2022-08-07T11:11:03.651Z,1518.75
2022-08-07T11:12:03.643Z,1501.88
2022-08-07T11:13:03.659Z,1417.50
2022-08-07T11:14:43.555Z,1361.25
2022-08-07T11:15:03.618Z,1321.88
2022-08-07T11:16:03.608Z,1333.13
2022-08-07T11:17:07.225Z,1411.88
2022-08-07T11:18:04.565Z,1490.63
2022-08-07T11:19:03.611Z,1518.75
2022-08-07T11:20:03.615Z,1518.75
2022-08-07T11:21:03.585Z,1518.75
2022-08-07T11:22:03.583Z,1524.38
2022-08-07T11:23:03.562Z,1524.38
2022-08-07T11:24:03.555Z,1569.38
2022-08-07T11:25:06.607Z,1608.75
2022-08-07T11:26:06.505Z,1614.38
2022-08-07T11:27:03.529Z,1614.38
2022-08-07T11:28:04.430Z,1625.63
2022-08-07T11:29:05.692Z,1614.38
2022-08-07T11:30:17.863Z,1575.00
2022-08-07T11:31:03.515Z,1451.25
2022-08-07T11:32:03.490Z,1254.38
2022-08-07T11:33:08.121Z,1175.63
2022-08-07T11:34:03.473Z,1321.88
2022-08-07T11:35:03.477Z,1524.38
2022-08-07T11:36:08.102Z,1597.50
2022-08-07T11:37:03.449Z,1620.00
2022-08-07T11:38:10.221Z,1597.50
2022-08-07T11:39:03.465Z,1608.75
2022-08-07T11:40:03.936Z,1575.00
2022-08-07T11:41:03.449Z,1541.25
2022-08-07T11:42:03.530Z,1490.63
2022-08-07T11:43:03.410Z,1485.00
2022-08-07T11:44:12.670Z,1440.00
2022-08-07T11:45:03.521Z,1440.00
2022-08-07T11:46:03.383Z,1344.38
2022-08-07T11:47:03.376Z,1316.25
2022-08-07T11:48:06.066Z,1305.00
2022-08-07T11:49:50.696Z,1215.00
2022-08-07T11:50:31.086Z,1175.63
2022-08-07T11:51:03.423Z,1119.38
2022-08-07T11:52:03.364Z,1001.25
2022-08-07T11:53:05.179Z,787.50
2022-08-07T11:54:09.727Z,478.13
2022-08-07T11:55:03.322Z,438.75
2022-08-07T11:56:25.212Z,421.88
2022-08-07T11:57:03.295Z,405.00
2022-08-07T11:58:03.420Z,388.13
2022-08-07T11:59:03.296Z,371.25
2022-08-07T12:00:12.560Z,365.63
2022-08-07T12:01:05.248Z,365.63
2022-08-07T12:02:03.392Z,354.38
2022-08-07T12:03:03.438Z,343.13
2022-08-07T12:04:03.325Z,343.13
2022-08-07T12:05:03.249Z,348.75
2022-08-07T12:06:37.674Z,343.13
2022-08-07T12:07:10.126Z,303.75
2022-08-07T12:08:03.688Z,281.25
2022-08-07T12:09:03.214Z,270.00
2022-08-07T12:10:05.793Z,264.38
2022-08-07T12:11:20.115Z,258.75
2022-08-07T12:12:10.335Z,264.38
2022-08-07T12:13:03.197Z,292.50
2022-08-07T12:14:03.189Z,337.50
2022-08-07T12:15:03.183Z,315.00
2022-08-07T12:16:06.769Z,258.75
2022-08-07T12:17:04.360Z,230.63
2022-08-07T12:18:07.959Z,225.00
2022-08-07T12:19:03.132Z,225.00
2022-08-07T12:20:10.318Z,219.38
2022-08-07T12:21:03.115Z,219.38
2022-08-07T12:22:39.327Z,225.00
2022-08-07T12:23:08.992Z,230.63
2022-08-07T12:24:05.501Z,236.25
2022-08-07T12:25:07.535Z,241.88
2022-08-07T12:26:23.332Z,236.25
2022-08-07T12:27:03.071Z,236.25
2022-08-07T12:28:08.445Z,236.25
2022-08-07T12:29:03.687Z,241.88
2022-08-07T12:30:03.040Z,247.50
2022-08-07T12:31:03.035Z,253.13
2022-08-07T12:32:04.607Z,253.13
2022-08-07T12:33:03.023Z,247.50
2022-08-07T12:34:04.270Z,247.50
2022-08-07T12:35:03.008Z,247.50
2022-08-07T12:36:03.020Z,253.13
2022-08-07T12:37:08.679Z,258.75
2022-08-07T12:38:09.643Z,264.38
2022-08-07T12:39:03.003Z,264.38
2022-08-07T12:40:02.995Z,264.38
2022-08-07T12:41:02.980Z,281.25
2022-08-07T12:42:02.964Z,298.13
2022-08-07T12:43:03.028Z,298.13
2022-08-07T12:44:05.604Z,298.13
2022-08-07T12:45:05.745Z,298.13
2022-08-07T12:46:02.912Z,309.38
2022-08-07T12:47:02.908Z,354.38
2022-08-07T12:48:02.894Z,410.63
2022-08-07T12:49:10.098Z,478.13
2022-08-07T12:50:05.127Z,523.13
2022-08-07T12:51:13.232Z,495.00
2022-08-07T12:52:13.663Z,427.50
2022-08-07T12:53:05.349Z,371.25
2022-08-07T12:54:37.059Z,348.75
2022-08-07T12:55:05.611Z,348.75
2022-08-07T12:56:04.065Z,360.00
2022-08-07T12:57:09.410Z,382.50
2022-08-07T12:58:02.975Z,433.13
2022-08-07T12:59:02.818Z,534.38
2022-08-07T13:00:02.802Z,551.25
2022-08-07T13:01:02.876Z,686.25
2022-08-07T13:02:02.780Z,686.25
2022-08-07T13:03:06.944Z,703.13
2022-08-07T13:04:05.004Z,691.88
2022-08-07T13:05:02.748Z,787.50
2022-08-07T13:06:21.443Z,590.63
2022-08-07T13:07:02.741Z,579.38
2022-08-07T13:08:14.210Z,596.25
2022-08-07T13:09:02.735Z,573.75
2022-08-07T13:10:20.719Z,506.25
2022-08-07T13:11:02.705Z,450.00
2022-08-07T13:12:09.923Z,444.38
2022-08-07T13:13:02.691Z,455.63
2022-08-07T13:14:02.674Z,450.00
2022-08-07T13:15:02.689Z,466.88
2022-08-07T13:16:02.660Z,455.63
2022-08-07T13:17:02.646Z,478.13
2022-08-07T13:18:02.635Z,500.63
2022-08-07T13:19:02.639Z,511.88
2022-08-07T13:20:02.668Z,517.50
2022-08-07T13:21:02.786Z,517.50
2022-08-07T13:22:19.368Z,511.88
2022-08-07T13:23:09.688Z,489.38
2022-08-07T13:24:04.755Z,478.13
2022-08-07T13:25:02.685Z,466.88
2022-08-07T13:26:02.565Z,528.75
2022-08-07T13:27:02.902Z,663.75
2022-08-07T13:28:11.459Z,517.50
2022-08-07T13:29:02.558Z,528.75
2022-08-07T13:30:03.561Z,495.00
2022-08-07T13:31:06.366Z,511.88
2022-08-07T13:32:31.073Z,495.00
2022-08-07T13:33:02.517Z,466.88
2022-08-07T13:34:33.313Z,438.75
2022-08-07T13:35:08.469Z,427.50
2022-08-07T13:36:05.861Z,433.13
2022-08-07T13:37:02.482Z,433.13
2022-08-07T13:38:02.450Z,444.38
2022-08-07T13:39:02.501Z,489.38
2022-08-07T13:40:34.067Z,517.50
2022-08-07T13:41:02.487Z,511.88
2022-08-07T13:42:02.424Z,461.25
2022-08-07T13:43:02.416Z,461.25
2022-08-07T13:44:02.440Z,421.88
2022-08-07T13:45:20.961Z,376.88
2022-08-07T13:46:10.764Z,405.00
2022-08-07T13:47:02.380Z,461.25
2022-08-07T13:48:05.769Z,545.63
2022-08-07T13:49:02.358Z,596.25
2022-08-07T13:50:35.278Z,540.00
2022-08-07T13:51:28.420Z,455.63
2022-08-07T13:52:22.998Z,393.75
2022-08-07T13:53:02.331Z,444.38
2022-08-07T13:54:03.461Z,511.88
2022-08-07T13:55:02.306Z,551.25
2022-08-07T13:56:02.338Z,534.38
2022-08-07T13:57:02.290Z,556.88
2022-08-07T13:58:02.623Z,506.25
2022-08-07T13:59:02.275Z,483.75
2022-08-07T14:00:02.290Z,450.00
2022-08-07T14:01:09.063Z,427.50
2022-08-07T14:02:04.369Z,416.25
2022-08-07T14:03:02.262Z,405.00
2022-08-07T14:04:07.698Z,405.00
2022-08-07T14:05:02.369Z,382.50
2022-08-07T14:06:02.221Z,371.25
2022-08-07T14:07:02.224Z,382.50
2022-08-07T14:08:02.244Z,388.13
2022-08-07T14:09:04.491Z,365.63
2022-08-07T14:10:17.713Z,388.13
2022-08-07T14:11:14.766Z,421.88
2022-08-07T14:12:07.235Z,416.25
2022-08-07T14:13:02.164Z,393.75
2022-08-07T14:14:02.158Z,326.25
2022-08-07T14:15:02.148Z,331.88
2022-08-07T14:16:02.167Z,343.13
2022-08-07T14:17:32.431Z,382.50
2022-08-07T14:18:16.143Z,399.38
2022-08-07T14:19:02.776Z,365.63
2022-08-07T14:20:40.473Z,365.63
2022-08-07T14:21:08.079Z,365.63
2022-08-07T14:22:10.753Z,405.00
2022-08-07T14:23:02.103Z,461.25
2022-08-07T14:24:03.646Z,438.75
2022-08-07T14:25:02.076Z,405.00
2022-08-07T14:26:02.063Z,388.13
2022-08-07T14:27:02.053Z,371.25
2022-08-07T14:28:11.419Z,371.25
2022-08-07T14:30:06.590Z,348.75
2022-08-07T14:31:02.561Z,343.13
2022-08-07T14:32:02.036Z,326.25
2022-08-07T14:33:02.045Z,320.63
2022-08-07T14:34:02.003Z,309.38
2022-08-07T14:35:03.989Z,286.88
2022-08-07T14:36:01.986Z,275.63
2022-08-07T14:37:03.010Z,275.63
2022-08-07T14:38:06.076Z,270.00
2022-08-07T14:39:02.031Z,258.75
2022-08-07T14:40:17.392Z,253.13
2022-08-07T14:41:03.863Z,253.13
2022-08-07T14:42:18.888Z,253.13
2022-08-07T14:43:59.469Z,241.88
2022-08-07T14:44:11.704Z,236.25
2022-08-07T14:45:21.354Z,230.63
2022-08-07T14:46:01.912Z,225.00
2022-08-07T14:47:14.681Z,225.00
2022-08-07T14:48:01.925Z,213.75
2022-08-07T14:49:55.900Z,208.13
2022-08-07T14:50:01.882Z,219.38
2022-08-07T14:51:01.901Z,202.50
2022-08-07T14:52:03.730Z,191.25
2022-08-07T14:54:20.840Z,174.38
2022-08-07T14:55:02.414Z,168.75
2022-08-07T14:56:02.153Z,163.13
2022-08-07T14:57:02.128Z,151.88
2022-08-07T14:58:02.014Z,151.88
2022-08-07T14:59:01.828Z,140.63
2022-08-07T15:00:05.155Z,135.00
2022-08-07T15:01:21.802Z,129.38
2022-08-07T15:02:01.789Z,123.75
2022-08-07T15:03:16.423Z,118.13
2022-08-07T15:04:05.684Z,112.50
2022-08-07T15:05:02.150Z,112.50
2022-08-07T15:06:03.897Z,112.50
2022-08-07T15:07:01.747Z,112.50
2022-08-07T15:08:01.737Z,112.50
2022-08-07T15:09:01.744Z,106.88
2022-08-07T15:10:04.856Z,101.25
2022-08-07T15:11:01.807Z,101.25
2022-08-07T15:12:01.747Z,95.63
2022-08-07T15:13:01.686Z,95.63
2022-08-07T15:14:09.891Z,90.00
2022-08-07T15:15:07.367Z,90.00
2022-08-07T15:16:01.663Z,84.38
2022-08-07T15:17:01.662Z,73.13
2022-08-07T15:18:02.435Z,78.75
2022-08-07T15:19:01.657Z,73.13
2022-08-07T15:20:33.046Z,73.13
2022-08-07T15:22:04.573Z,67.50
2022-08-07T15:23:20.322Z,61.88
2022-08-07T15:25:13.547Z,56.25
2022-08-07T15:25:14.460Z,56.25
2022-08-07T15:26:01.579Z,56.25
2022-08-07T15:27:01.543Z,50.63
2022-08-07T15:30:06.371Z,50.63
2022-08-07T15:30:06.635Z,45.00
2022-08-07T15:31:05.849Z,50.63
2022-08-07T15:32:02.737Z,50.63
2022-08-07T15:33:05.624Z,50.63
2022-08-07T15:34:01.463Z,45.00
2022-08-07T15:35:01.470Z,45.00
2022-08-07T15:37:03.827Z,45.00
2022-08-07T15:38:17.829Z,45.00
2022-08-07T15:39:01.436Z,45.00
2022-08-07T15:40:01.509Z,45.00
2022-08-07T15:41:23.696Z,61.88
2022-08-07T15:42:45.628Z,73.13
2022-08-07T15:43:01.516Z,61.88
2022-08-07T15:44:01.345Z,50.63
2022-08-07T15:45:01.398Z,56.25
2022-08-07T15:46:31.095Z,56.25
2022-08-07T15:47:03.380Z,61.88
2022-08-07T15:48:02.043Z,50.63
2022-08-07T15:49:12.027Z,56.25
2022-08-07T15:50:05.863Z,50.63
2022-08-07T15:51:08.703Z,45.00
2022-08-07T15:52:01.692Z,45.00
2022-08-07T15:53:02.499Z,45.00
2022-08-07T15:54:01.232Z,45.00
2022-08-07T15:55:02.690Z,45.00
2022-08-07T15:56:02.969Z,39.38
2022-08-07T15:57:01.208Z,45.00
2022-08-07T15:58:01.197Z,39.38
2022-08-07T15:59:01.158Z,39.38
2022-08-07T16:00:04.397Z,39.38
2022-08-07T16:01:01.174Z,39.38
2022-08-07T16:02:01.987Z,45.00
2022-08-07T16:03:01.123Z,39.38
2022-08-07T16:04:01.107Z,39.38
2022-08-07T16:05:01.082Z,39.38
2022-08-07T16:06:01.080Z,39.38
2022-08-07T16:07:01.066Z,33.75
2022-08-07T16:08:31.235Z,33.75
2022-08-07T16:09:01.028Z,33.75
2022-08-07T16:10:01.054Z,33.75
2022-08-07T16:11:01.023Z,33.75
2022-08-07T16:12:00.987Z,39.38
2022-08-07T16:13:05.492Z,39.38
2022-08-07T16:14:02.915Z,39.38
2022-08-07T16:15:00.965Z,39.38
2022-08-07T16:16:06.120Z,33.75
2022-08-07T16:17:00.951Z,33.75
2022-08-07T16:18:03.798Z,33.75
2022-08-07T16:19:00.908Z,28.13
2022-08-07T16:20:00.893Z,28.13
2022-08-07T16:22:01.814Z,28.13
2022-08-07T16:22:04.079Z,33.75
2022-08-07T16:23:05.460Z,33.75
2022-08-07T16:24:00.833Z,33.75
2022-08-07T16:25:00.811Z,33.75
2022-08-07T16:26:00.805Z,33.75
2022-08-07T16:27:00.788Z,33.75
2022-08-07T16:28:00.794Z,33.75
2022-08-07T16:30:07.341Z,39.38
2022-08-07T16:30:10.861Z,39.38
2022-08-07T16:31:00.732Z,33.75
2022-08-07T16:32:00.799Z,33.75
2022-08-07T16:34:02.756Z,33.75
2022-08-07T16:34:10.224Z,33.75
2022-08-07T16:35:00.693Z,33.75
2022-08-07T16:36:00.777Z,33.75
2022-08-07T16:37:02.420Z,33.75
2022-08-07T16:38:05.945Z,33.75
2022-08-07T16:39:02.076Z,33.75
2022-08-07T16:40:00.733Z,33.75
2022-08-07T16:41:02.411Z,33.75
2022-08-07T16:42:00.682Z,33.75
2022-08-07T16:43:00.570Z,33.75
2022-08-07T16:44:03.881Z,39.38
2022-08-07T16:45:24.604Z,39.38
2022-08-07T16:46:33.513Z,39.38
2022-08-07T16:47:16.036Z,39.38
2022-08-07T16:48:00.503Z,39.38
2022-08-07T16:50:20.822Z,39.38
2022-08-07T16:50:27.789Z,39.38
2022-08-07T16:51:20.938Z,33.75
2022-08-07T16:52:48.671Z,33.75
2022-08-07T16:53:14.720Z,33.75
2022-08-07T16:54:06.494Z,33.75
2022-08-07T16:55:08.162Z,33.75
2022-08-07T16:56:00.389Z,33.75
2022-08-07T16:57:00.379Z,33.75
2022-08-07T16:58:02.412Z,33.75
2022-08-07T16:59:10.581Z,39.38
2022-08-07T17:00:00.332Z,45.00
2022-08-07T17:01:00.390Z,56.25
2022-08-07T17:02:02.895Z,56.25
2022-08-07T17:03:04.776Z,45.00
2022-08-07T17:04:00.569Z,45.00
2022-08-07T17:05:00.287Z,33.75
2022-08-07T17:06:19.930Z,33.75
2022-08-07T17:07:03.965Z,28.13
2022-08-07T17:08:00.248Z,28.13
2022-08-07T17:09:10.651Z,28.13
2022-08-07T17:10:08.010Z,28.13
2022-08-07T17:11:00.206Z,33.75
2022-08-07T17:12:04.115Z,28.13
2022-08-07T17:13:01.072Z,28.13
2022-08-07T17:14:19.192Z,28.13
2022-08-07T17:15:00.140Z,22.50
2022-08-07T17:16:00.129Z,22.50
2022-08-07T17:17:00.134Z,22.50
2022-08-07T17:18:00.092Z,28.13
2022-08-07T17:19:00.102Z,22.50
2022-08-07T17:20:02.966Z,22.50
2022-08-07T17:21:00.049Z,22.50
2022-08-07T17:22:00.044Z,22.50
2022-08-07T17:23:00.038Z,22.50
2022-08-07T17:24:00.006Z,22.50
2022-08-07T17:25:00.010Z,22.50
2022-08-07T17:25:59.981Z,22.50
2022-08-07T17:26:59.963Z,22.50
2022-08-07T17:28:00.439Z,22.50
2022-08-07T17:29:04.481Z,22.50
2022-08-07T17:30:15.818Z,22.50
2022-08-07T17:30:59.913Z,22.50
2022-08-07T17:32:02.479Z,22.50
2022-08-07T17:32:59.878Z,16.88
2022-08-07T17:34:32.794Z,16.88
2022-08-07T17:35:50.880Z,16.88
2022-08-07T17:35:59.841Z,16.88
2022-08-07T17:37:09.724Z,16.88
2022-08-07T17:38:06.665Z,16.88
2022-08-07T17:38:59.869Z,16.88
2022-08-07T17:40:03.428Z,16.88
2022-08-07T17:40:59.768Z,16.88
2022-08-07T17:42:03.476Z,16.88
2022-08-07T17:43:00.479Z,16.88
2022-08-07T17:44:03.182Z,16.88
2022-08-07T17:44:59.729Z,16.88
2022-08-07T17:45:59.711Z,16.88
2022-08-07T17:46:59.683Z,16.88
2022-08-07T17:47:59.686Z,16.88
2022-08-07T17:48:59.650Z,16.88
2022-08-07T17:49:59.674Z,16.88
2022-08-07T17:50:59.630Z,16.88
2022-08-07T17:52:01.463Z,16.88
2022-08-07T17:53:00.605Z,16.88
2022-08-07T17:54:01.992Z,16.88
2022-08-07T17:54:59.561Z,16.88
2022-08-07T17:56:06.194Z,11.25
2022-08-07T17:56:59.533Z,11.25
2022-08-07T17:58:02.256Z,11.25
2022-08-07T17:58:59.522Z,11.25
2022-08-07T17:59:59.496Z,11.25
2022-08-07T18:00:59.549Z,11.25
2022-08-07T18:01:59.510Z,11.25
2022-08-07T18:02:59.455Z,11.25
2022-08-07T18:04:07.126Z,11.25
2022-08-07T18:04:59.428Z,11.25
2022-08-07T18:06:03.327Z,11.25
2022-08-07T18:07:19.956Z,5.63
2022-08-07T18:07:59.393Z,5.63
2022-08-07T18:09:05.797Z,5.63
2022-08-07T18:10:07.074Z,5.63
2022-08-07T18:11:53.551Z,5.63
2022-08-07T18:12:17.715Z,5.63
2022-08-07T18:12:59.320Z,5.63
2022-08-07T18:14:01.618Z,5.63
2022-08-07T18:14:59.277Z,5.63
2022-08-07T18:15:59.290Z,5.63
2022-08-07T18:16:59.259Z,5.63
2022-08-07T18:18:44.805Z,5.63
2022-08-07T18:21:04.198Z,5.63
2022-08-07T18:21:06.590Z,5.63
2022-08-07T18:21:10.962Z,5.63
2022-08-07T18:22:03.467Z,5.63
2022-08-07T18:22:59.159Z,5.63
2022-08-07T18:23:59.148Z,5.63
2022-08-07T18:24:59.129Z,5.63
2022-08-07T18:26:00.962Z,5.63
2022-08-07T18:26:59.119Z,5.63
2022-08-07T18:27:59.092Z,5.63
2022-08-07T18:28:59.157Z,5.63
2022-08-07T18:30:06.026Z,5.63
2022-08-07T18:30:59.078Z,5.63
2022-08-07T18:31:59.025Z,5.63
2022-08-07T18:33:10.972Z,5.63
2022-08-07T18:33:59.071Z,5.63
2022-08-07T18:35:01.579Z,5.63
2022-08-07T18:35:58.965Z,5.63
2022-08-07T18:36:58.967Z,5.63
2022-08-07T18:38:58.722Z,5.63
2022-08-07T18:39:01.136Z,5.63
2022-08-07T18:40:06.407Z,5.63
2022-08-07T18:41:07.906Z,5.63
2022-08-07T18:41:58.938Z,5.63
2022-08-07T18:42:58.857Z,5.63
2022-08-07T18:43:59.076Z,5.63
2022-08-07T18:45:44.432Z,5.63
2022-08-07T18:46:25.494Z,5.63
2022-08-07T18:47:00.300Z,5.63
2022-08-07T18:48:00.699Z,5.63
2022-08-07T18:50:19.686Z,5.63
2022-08-07T18:50:30.416Z,5.63
2022-08-07T18:50:58.763Z,5.63
2022-08-07T18:52:34.750Z,0.00
2022-08-07T18:53:04.577Z,0.00
2022-08-07T18:53:58.694Z,0.00
2022-08-07T18:54:58.688Z,0.00
2022-08-07T18:55:58.670Z,0.00
2022-08-07T18:57:30.543Z,0.00
2022-08-07T18:57:59.686Z,0.00
2022-08-07T18:58:58.633Z,0.00
2022-08-07T19:00:00.631Z,0.00
2022-08-07T19:00:59.548Z,0.00
2022-08-07T19:02:18.632Z,0.00
2022-08-07T19:02:58.617Z,0.00
2022-08-07T19:03:58.605Z,0.00
2022-08-07T19:05:14.829Z,0.00
2022-08-07T19:06:04.065Z,0.00
2022-08-07T19:06:58.496Z,0.00
2022-08-07T19:07:58.850Z,0.00
2022-08-07T19:08:58.773Z,0.00
2022-08-07T19:09:58.974Z,0.00
2022-08-07T19:10:58.446Z,0.00
2022-08-07T19:12:04.673Z,0.00
2022-08-07T19:13:10.414Z,0.00
2022-08-07T19:13:58.398Z,0.00
2022-08-07T19:14:58.374Z,0.00
2022-08-07T19:16:05.472Z,0.00
2022-08-07T19:17:07.612Z,0.00
2022-08-07T19:18:02.876Z,0.00
2022-08-07T19:18:58.691Z,0.00
2022-08-07T19:19:58.320Z,0.00
2022-08-07T19:21:08.313Z,0.00
2022-08-07T19:22:04.344Z,0.00
2022-08-07T19:23:00.817Z,0.00
2022-08-07T19:24:00.265Z,0.00
2022-08-07T19:24:58.220Z,0.00
2022-08-07T19:26:24.080Z,0.00
2022-08-07T19:28:57.686Z,0.00
2022-08-07T19:30:57.064Z,0.00
2022-08-07T19:31:02.942Z,0.00
2022-08-07T19:31:04.381Z,0.00
2022-08-07T19:31:42.806Z,0.00
2022-08-07T19:32:17.415Z,0.00
2022-08-07T19:32:59.287Z,0.00
2022-08-07T19:33:58.568Z,0.00
2022-08-07T19:34:58.062Z,0.00
2022-08-07T19:35:58.044Z,0.00
2022-08-07T19:36:58.037Z,0.00
2022-08-07T19:37:58.465Z,0.00
2022-08-07T19:38:58.080Z,0.00
2022-08-07T19:40:02.015Z,0.00
2022-08-07T19:40:57.968Z,0.00
2022-08-07T19:42:08.345Z,0.00
2022-08-07T19:42:57.938Z,0.00
2022-08-07T19:44:01.088Z,0.00
2022-08-07T19:44:58.966Z,0.00
2022-08-07T19:46:09.713Z,0.00
2022-08-07T19:46:58.131Z,0.00
2022-08-07T19:47:57.870Z,0.00
2022-08-07T19:48:57.858Z,0.00
2022-08-07T19:50:03.178Z,0.00
2022-08-07T19:50:57.817Z,0.00
2022-08-07T19:52:00.661Z,0.00
2022-08-07T19:52:59.105Z,0.00
2022-08-07T19:54:32.588Z,0.00